sensor_id;sensor_type;location;lat;lon;timestamp;pressure;altitude;pressure_sealevel;temperature;humidity
56006;BME280;41888;44.696;10.522;2023-02-21T00:02:34;101300.06;;;6.76;100.00
56006;BME280;41888;44.696;10.522;2023-02-21T00:05:19;101307.94;;;6.68;100.00
56006;BME280;41888;44.696;10.522;2023-02-21T00:08:04;101311.38;;;6.60;100.00
56006;BME280;41888;44.696;10.522;2023-02-21T00:10:48;101312.03;;;6.62;100.00
56006;BME280;41888;44.696;10.522;2023-02-21T00:13:36;101299.97;;;6.60;100.00
56006;BME280;41888;44.696;10.522;2023-02-21T00:16:21;101302.78;;;6.58;100.00
56006;BME280;41888;44.696;10.522;2023-02-21T00:19:06;101302.25;;;6.55;100.00
56006;BME280;41888;44.696;10.522;2023-02-21T00:21:51;101301.88;;;6.75;100.00
56006;BME280;41888;44.696;10.522;2023-02-21T00:24:36;101295.34;;;6.62;100.00
56006;BME280;41888;44.696;10.522;2023-02-21T00:27:21;101291.44;;;6.74;100.00
56006;BME280;41888;44.696;10.522;2023-02-21T00:30:08;101297.47;;;6.58;100.00
56006;BME280;41888;44.696;10.522;2023-02-21T00:32:53;101294.34;;;6.63;100.00
56006;BME280;41888;44.696;10.522;2023-02-21T00:35:37;101289.41;;;6.60;100.00
56006;BME280;41888;44.696;10.522;2023-02-21T00:38:22;101287.72;;;6.59;100.00
56006;BME280;41888;44.696;10.522;2023-02-21T00:41:07;101280.09;;;6.56;100.00
56006;BME280;41888;44.696;10.522;2023-02-21T00:43:52;101290.63;;;6.40;100.00
56006;BME280;41888;44.696;10.522;2023-02-21T00:46:37;101287.50;;;6.44;100.00
56006;BME280;41888;44.696;10.522;2023-02-21T00:49:22;101287.84;;;6.49;100.00
56006;BME280;41888;44.696;10.522;2023-02-21T00:52:07;101287.69;;;6.51;100.00
56006;BME280;41888;44.696;10.522;2023-02-21T00:54:51;101270.00;;;6.51;100.00
56006;BME280;41888;44.696;10.522;2023-02-21T00:57:36;101271.28;;;6.39;100.00
56006;BME280;41888;44.696;10.522;2023-02-21T01:00:23;101279.50;;;6.36;100.00
56006;BME280;41888;44.696;10.522;2023-02-21T01:03:08;101270.88;;;6.26;100.00
56006;BME280;41888;44.696;10.522;2023-02-21T01:05:54;101272.94;;;6.14;100.00
56006;BME280;41888;44.696;10.522;2023-02-21T01:08:45;101273.88;;;6.05;100.00
56006;BME280;41888;44.696;10.522;2023-02-21T01:11:31;101276.50;;;6.05;100.00
56006;BME280;41888;44.696;10.522;2023-02-21T01:14:16;101260.31;;;6.00;100.00
56006;BME280;41888;44.696;10.522;2023-02-21T01:17:01;101270.44;;;5.87;100.00
56006;BME280;41888;44.696;10.522;2023-02-21T01:19:46;101264.91;;;5.80;100.00
56006;BME280;41888;44.696;10.522;2023-02-21T01:22:30;101264.91;;;5.80;100.00
56006;BME280;41888;44.696;10.522;2023-02-21T01:25:15;101257.75;;;5.73;100.00
56006;BME280;41888;44.696;10.522;2023-02-21T01:28:00;101251.63;;;5.72;100.00
56006;BME280;41888;44.696;10.522;2023-02-21T01:30:45;101253.41;;;5.64;100.00
56006;BME280;41888;44.696;10.522;2023-02-21T01:33:37;101257.84;;;5.45;100.00
56006;BME280;41888;44.696;10.522;2023-02-21T01:36:22;101251.91;;;5.43;100.00
56006;BME280;41888;44.696;10.522;2023-02-21T01:39:07;101246.16;;;5.48;100.00
56006;BME280;41888;44.696;10.522;2023-02-21T01:41:52;101247.06;;;5.57;100.00
56006;BME280;41888;44.696;10.522;2023-02-21T01:44:42;101243.66;;;5.64;100.00
56006;BME280;41888;44.696;10.522;2023-02-21T01:47:28;101233.16;;;5.72;100.00
56006;BME280;41888;44.696;10.522;2023-02-21T01:50:26;101240.09;;;5.73;100.00
56006;BME280;41888;44.696;10.522;2023-02-21T01:53:24;101237.78;;;5.70;100.00
56006;BME280;41888;44.696;10.522;2023-02-21T01:56:10;101240.66;;;5.59;100.00
56006;BME280;41888;44.696;10.522;2023-02-21T01:58:57;101237.56;;;5.64;100.00
56006;BME280;41888;44.696;10.522;2023-02-21T02:04:58;101235.19;;;5.61;100.00
56006;BME280;41888;44.696;10.522;2023-02-21T02:07:43;101233.84;;;5.57;100.00
56006;BME280;41888;44.696;10.522;2023-02-21T02:10:28;101234.91;;;5.46;100.00
56006;BME280;41888;44.696;10.522;2023-02-21T02:16:45;101232.75;;;5.41;100.00
56006;BME280;41888;44.696;10.522;2023-02-21T02:35:44;101214.13;;;5.25;100.00
56006;BME280;41888;44.696;10.522;2023-02-21T02:38:26;101200.66;;;5.28;100.00
56006;BME280;41888;44.696;10.522;2023-02-21T02:43:31;101202.38;;;5.20;100.00
56006;BME280;41888;44.696;10.522;2023-02-21T02:46:05;101206.97;;;5.18;100.00
56006;BME280;41888;44.696;10.522;2023-02-21T02:48:40;101204.84;;;5.21;100.00
56006;BME280;41888;44.696;10.522;2023-02-21T02:51:12;101203.28;;;5.28;100.00
56006;BME280;41888;44.696;10.522;2023-02-21T02:53:39;101195.88;;;5.14;100.00
56006;BME280;41888;44.696;10.522;2023-02-21T02:56:11;101192.72;;;5.10;100.00
56006;BME280;41888;44.696;10.522;2023-02-21T02:58:53;101200.53;;;5.02;100.00
56006;BME280;41888;44.696;10.522;2023-02-21T03:15:22;101187.84;;;4.53;100.00
56006;BME280;41888;44.696;10.522;2023-02-21T03:17:58;101181.81;;;4.60;100.00
56006;BME280;41888;44.696;10.522;2023-02-21T03:20:27;101194.41;;;4.66;100.00
56006;BME280;41888;44.696;10.522;2023-02-21T03:22:54;101189.25;;;4.47;100.00
56006;BME280;41888;44.696;10.522;2023-02-21T03:25:24;101193.88;;;4.63;100.00
56006;BME280;41888;44.696;10.522;2023-02-21T03:27:53;101188.84;;;4.70;100.00
56006;BME280;41888;44.696;10.522;2023-02-21T03:30:20;101185.13;;;4.62;100.00
56006;BME280;41888;44.696;10.522;2023-02-21T03:32:49;101183.66;;;4.60;100.00
56006;BME280;41888;44.696;10.522;2023-02-21T03:35:18;101184.22;;;4.54;100.00
56006;BME280;41888;44.696;10.522;2023-02-21T03:37:50;101178.41;;;4.50;100.00
56006;BME280;41888;44.696;10.522;2023-02-21T03:40:25;101177.50;;;4.42;100.00
56006;BME280;41888;44.696;10.522;2023-02-21T03:42:53;101186.03;;;4.53;100.00
56006;BME280;41888;44.696;10.522;2023-02-21T03:45:20;101184.31;;;4.62;100.00
56006;BME280;41888;44.696;10.522;2023-02-21T03:47:46;101191.75;;;4.49;100.00
56006;BME280;41888;44.696;10.522;2023-02-21T03:50:12;101180.66;;;4.45;100.00
56006;BME280;41888;44.696;10.522;2023-02-21T03:52:38;101180.22;;;4.50;100.00
56006;BME280;41888;44.696;10.522;2023-02-21T03:55:06;101183.66;;;4.60;100.00
56006;BME280;41888;44.696;10.522;2023-02-21T03:57:32;101186.09;;;4.61;100.00
56006;BME280;41888;44.696;10.522;2023-02-21T03:59:58;101179.19;;;4.60;100.00
56006;BME280;41888;44.696;10.522;2023-02-21T04:02:25;101172.09;;;4.43;100.00
56006;BME280;41888;44.696;10.522;2023-02-21T04:04:51;101188.34;;;4.29;100.00
56006;BME280;41888;44.696;10.522;2023-02-21T04:07:18;101185.84;;;4.37;100.00
56006;BME280;41888;44.696;10.522;2023-02-21T04:09:46;101186.28;;;4.33;100.00
56006;BME280;41888;44.696;10.522;2023-02-21T04:12:12;101182.41;;;4.27;100.00
56006;BME280;41888;44.696;10.522;2023-02-21T04:14:39;101188.34;;;4.29;100.00
56006;BME280;41888;44.696;10.522;2023-02-21T04:17:05;101186.56;;;4.30;100.00
56006;BME280;41888;44.696;10.522;2023-02-21T04:19:32;101191.69;;;4.31;100.00
56006;BME280;41888;44.696;10.522;2023-02-21T04:21:58;101188.16;;;4.40;100.00
56006;BME280;41888;44.696;10.522;2023-02-21T04:24:24;101183.41;;;4.53;100.00
56006;BME280;41888;44.696;10.522;2023-02-21T04:26:50;101188.56;;;4.45;100.00
56006;BME280;41888;44.696;10.522;2023-02-21T04:29:17;101183.16;;;4.47;100.00
56006;BME280;41888;44.696;10.522;2023-02-21T04:31:43;101180.66;;;4.45;100.00
56006;BME280;41888;44.696;10.522;2023-02-21T04:34:09;101189.06;;;4.31;100.00
56006;BME280;41888;44.696;10.522;2023-02-21T04:36:35;101185.72;;;4.29;100.00
56006;BME280;41888;44.696;10.522;2023-02-21T04:39:04;101184.81;;;4.20;100.00
56006;BME280;41888;44.696;10.522;2023-02-21T04:41:30;101189.06;;;4.31;100.00
56006;BME280;41888;44.696;10.522;2023-02-21T04:43:56;101184.31;;;4.35;100.00
56006;BME280;41888;44.696;10.522;2023-02-21T04:46:22;101193.44;;;4.40;100.00
56006;BME280;41888;44.696;10.522;2023-02-21T04:48:50;101185.59;;;4.31;100.00
56006;BME280;41888;44.696;10.522;2023-02-21T04:51:20;101187.53;;;4.29;100.00
56006;BME280;41888;44.696;10.522;2023-02-21T04:53:47;101180.25;;;4.40;100.00
56006;BME280;41888;44.696;10.522;2023-02-21T04:56:14;101174.91;;;4.32;100.00
56006;BME280;41888;44.696;10.522;2023-02-21T04:58:42;101179.88;;;4.35;100.00
56006;BME280;41888;44.696;10.522;2023-02-21T05:01:10;101173.88;;;4.43;100.00
56006;BME280;41888;44.696;10.522;2023-02-21T05:03:37;101176.22;;;4.46;100.00
56006;BME280;41888;44.696;10.522;2023-02-21T05:06:03;101173.63;;;4.63;100.00
56006;BME280;41888;44.696;10.522;2023-02-21T05:08:29;101172.22;;;4.69;100.00
56006;BME280;41888;44.696;10.522;2023-02-21T05:10:55;101175.09;;;4.76;100.00
56006;BME280;41888;44.696;10.522;2023-02-21T05:13:22;101168.03;;;4.66;100.00
56006;BME280;41888;44.696;10.522;2023-02-21T05:15:48;101163.97;;;4.54;100.00
56006;BME280;41888;44.696;10.522;2023-02-21T05:18:15;101168.56;;;4.52;100.00
56006;BME280;41888;44.696;10.522;2023-02-21T05:20:51;101159.50;;;4.55;100.00
56006;BME280;41888;44.696;10.522;2023-02-21T05:23:18;101158.75;;;4.45;100.00
56006;BME280;41888;44.696;10.522;2023-02-21T05:26:07;101153.78;;;4.42;100.00
56006;BME280;41888;44.696;10.522;2023-02-21T05:28:34;101152.81;;;4.43;100.00
56006;BME280;41888;44.696;10.522;2023-02-21T05:31:01;101147.38;;;4.44;100.00
56006;BME280;41888;44.696;10.522;2023-02-21T05:33:27;101150.94;;;4.53;100.00
56006;BME280;41888;44.696;10.522;2023-02-21T05:35:54;101144.72;;;4.44;100.00
56006;BME280;41888;44.696;10.522;2023-02-21T05:38:22;101143.00;;;4.35;100.00
56006;BME280;41888;44.696;10.522;2023-02-21T05:40:48;101141.88;;;4.38;100.00
56006;BME280;41888;44.696;10.522;2023-02-21T05:43:14;101144.34;;;4.39;100.00
56006;BME280;41888;44.696;10.522;2023-02-21T05:45:41;101141.72;;;4.39;100.00
56006;BME280;41888;44.696;10.522;2023-02-21T05:48:07;101140.34;;;4.35;100.00
56006;BME280;41888;44.696;10.522;2023-02-21T05:50:34;101133.72;;;4.31;100.00
56006;BME280;41888;44.696;10.522;2023-02-21T05:53:00;101139.31;;;4.18;100.00
56006;BME280;41888;44.696;10.522;2023-02-21T05:55:27;101138.16;;;4.31;100.00
56006;BME280;41888;44.696;10.522;2023-02-21T05:57:53;101134.31;;;4.25;100.00
56006;BME280;41888;44.696;10.522;2023-02-21T06:00:26;101133.03;;;4.29;100.00
56006;BME280;41888;44.696;10.522;2023-02-21T06:02:53;101130.97;;;4.23;100.00
56006;BME280;41888;44.696;10.522;2023-02-21T06:05:20;101126.16;;;4.18;100.00
56006;BME280;41888;44.696;10.522;2023-02-21T06:07:47;101132.97;;;4.21;100.00
56006;BME280;41888;44.696;10.522;2023-02-21T06:10:14;101132.97;;;4.21;100.00
56006;BME280;41888;44.696;10.522;2023-02-21T06:12:40;101140.81;;;4.31;100.00
56006;BME280;41888;44.696;10.522;2023-02-21T06:15:07;101143.28;;;4.32;100.00
56006;BME280;41888;44.696;10.522;2023-02-21T06:17:36;101139.69;;;4.33;100.00
56006;BME280;41888;44.696;10.522;2023-02-21T06:20:04;101144.72;;;4.27;100.00
56006;BME280;41888;44.696;10.522;2023-02-21T06:22:31;101144.75;;;4.17;100.00
56006;BME280;41888;44.696;10.522;2023-02-21T06:24:57;101144.91;;;4.15;100.00
56006;BME280;41888;44.696;10.522;2023-02-21T06:27:23;101145.25;;;4.30;100.00
56006;BME280;41888;44.696;10.522;2023-02-21T06:29:49;101153.72;;;4.24;100.00
56006;BME280;41888;44.696;10.522;2023-02-21T06:32:15;101147.22;;;4.28;100.00
56006;BME280;41888;44.696;10.522;2023-02-21T06:34:43;101149.41;;;4.33;100.00
56006;BME280;41888;44.696;10.522;2023-02-21T06:37:10;101153.06;;;4.22;100.00
56006;BME280;41888;44.696;10.522;2023-02-21T06:39:38;101158.84;;;4.25;100.00
56006;BME280;41888;44.696;10.522;2023-02-21T06:42:04;101159.34;;;4.39;100.00
56006;BME280;41888;44.696;10.522;2023-02-21T06:44:31;101164.78;;;4.55;100.00
56006;BME280;41888;44.696;10.522;2023-02-21T06:46:57;101164.97;;;4.71;100.00
56006;BME280;41888;44.696;10.522;2023-02-21T06:49:23;101169.56;;;4.87;100.00
56006;BME280;41888;44.696;10.522;2023-02-21T06:51:50;101166.19;;;4.94;100.00
56006;BME280;41888;44.696;10.522;2023-02-21T06:54:16;101178.84;;;4.91;100.00
56006;BME280;41888;44.696;10.522;2023-02-21T06:56:42;101177.28;;;5.33;100.00
56006;BME280;41888;44.696;10.522;2023-02-21T06:59:09;101178.09;;;5.34;100.00
56006;BME280;41888;44.696;10.522;2023-02-21T07:01:35;101176.50;;;5.41;100.00
56006;BME280;41888;44.696;10.522;2023-02-21T07:04:02;101183.56;;;5.58;100.00
56006;BME280;41888;44.696;10.522;2023-02-21T07:06:28;101183.53;;;5.76;100.00
56006;BME280;41888;44.696;10.522;2023-02-21T07:08:56;101182.88;;;5.82;100.00
56006;BME280;41888;44.696;10.522;2023-02-21T07:11:22;101182.84;;;5.91;100.00
56006;BME280;41888;44.696;10.522;2023-02-21T07:13:53;101181.06;;;6.00;100.00
56006;BME280;41888;44.696;10.522;2023-02-21T07:16:20;101182.66;;;5.93;100.00
56006;BME280;41888;44.696;10.522;2023-02-21T07:18:46;101188.63;;;5.95;100.00
56006;BME280;41888;44.696;10.522;2023-02-21T07:21:13;101198.56;;;5.83;100.00
56006;BME280;41888;44.696;10.522;2023-02-21T07:23:42;101194.25;;;6.00;100.00
56006;BME280;41888;44.696;10.522;2023-02-21T07:26:09;101200.16;;;5.94;100.00
56006;BME280;41888;44.696;10.522;2023-02-21T07:28:35;101197.72;;;6.01;100.00
56006;BME280;41888;44.696;10.522;2023-02-21T07:31:02;101196.63;;;6.11;100.00
56006;BME280;41888;44.696;10.522;2023-02-21T07:33:28;101198.31;;;6.20;100.00
56006;BME280;41888;44.696;10.522;2023-02-21T07:35:55;101197.00;;;6.16;100.00
56006;BME280;41888;44.696;10.522;2023-02-21T07:38:22;101197.69;;;6.18;100.00
56006;BME280;41888;44.696;10.522;2023-02-21T07:40:49;101200.56;;;6.33;100.00
56006;BME280;41888;44.696;10.522;2023-02-21T07:43:15;101199.25;;;6.45;100.00
56006;BME280;41888;44.696;10.522;2023-02-21T07:45:42;101203.81;;;6.61;100.00
56006;BME280;41888;44.696;10.522;2023-02-21T07:48:08;101193.59;;;6.82;100.00
56006;BME280;41888;44.696;10.522;2023-02-21T07:50:35;101196.94;;;6.92;100.00
56006;BME280;41888;44.696;10.522;2023-02-21T07:53:01;101198.47;;;7.03;100.00
56006;BME280;41888;44.696;10.522;2023-02-21T07:55:27;101195.31;;;7.07;100.00
56006;BME280;41888;44.696;10.522;2023-02-21T07:57:53;101197.81;;;7.25;100.00
56006;BME280;41888;44.696;10.522;2023-02-21T08:00:19;101206.59;;;7.42;100.00
56006;BME280;41888;44.696;10.522;2023-02-21T08:02:50;101202.94;;;7.59;100.00
56006;BME280;41888;44.696;10.522;2023-02-21T08:05:18;101201.28;;;7.74;100.00
56006;BME280;41888;44.696;10.522;2023-02-21T08:07:45;101212.22;;;7.87;100.00
56006;BME280;41888;44.696;10.522;2023-02-21T08:10:12;101205.88;;;7.96;100.00
56006;BME280;41888;44.696;10.522;2023-02-21T08:12:39;101200.44;;;7.90;100.00
56006;BME280;41888;44.696;10.522;2023-02-21T08:15:05;101210.88;;;7.91;100.00
56006;BME280;41888;44.696;10.522;2023-02-21T08:17:32;101207.00;;;8.10;100.00
56006;BME280;41888;44.696;10.522;2023-02-21T08:19:58;101205.53;;;7.99;100.00
56006;BME280;41888;44.696;10.522;2023-02-21T08:22:24;101201.56;;;7.95;100.00
56006;BME280;41888;44.696;10.522;2023-02-21T08:24:50;101207.53;;;7.97;100.00
56006;BME280;41888;44.696;10.522;2023-02-21T08:27:17;101202.84;;;8.16;100.00
56006;BME280;41888;44.696;10.522;2023-02-21T08:29:43;101207.84;;;8.11;100.00
56006;BME280;41888;44.696;10.522;2023-02-21T08:32:10;101197.03;;;8.20;100.00
56006;BME280;41888;44.696;10.522;2023-02-21T08:34:36;101192.53;;;8.37;100.00
56006;BME280;41888;44.696;10.522;2023-02-21T08:37:02;101197.81;;;8.45;100.00
56006;BME280;41888;44.696;10.522;2023-02-21T08:39:31;101193.66;;;8.51;100.00
56006;BME280;41888;44.696;10.522;2023-02-21T08:41:57;101196.44;;;8.57;100.00
56006;BME280;41888;44.696;10.522;2023-02-21T08:44:24;101196.78;;;8.54;100.00
56006;BME280;41888;44.696;10.522;2023-02-21T08:46:50;101201.88;;;8.64;100.00
56006;BME280;41888;44.696;10.522;2023-02-21T08:49:16;101197.44;;;8.56;100.00
56006;BME280;41888;44.696;10.522;2023-02-21T08:51:42;101194.91;;;8.63;100.00
56006;BME280;41888;44.696;10.522;2023-02-21T08:54:08;101194.38;;;8.67;100.00
56006;BME280;41888;44.696;10.522;2023-02-21T08:56:35;101195.34;;;8.74;100.00
56006;BME280;41888;44.696;10.522;2023-02-21T08:59:01;101193.66;;;8.81;100.00
56006;BME280;41888;44.696;10.522;2023-02-21T09:01:33;101199.31;;;8.78;100.00
56006;BME280;41888;44.696;10.522;2023-02-21T09:04:01;101198.78;;;8.83;100.00
56006;BME280;41888;44.696;10.522;2023-02-21T09:06:27;101205.28;;;8.80;100.00
56006;BME280;41888;44.696;10.522;2023-02-21T09:08:53;101207.25;;;8.78;100.00
56006;BME280;41888;44.696;10.522;2023-02-21T09:11:20;101209.88;;;8.86;100.00
56006;BME280;41888;44.696;10.522;2023-02-21T09:13:46;101203.38;;;8.89;100.00
56006;BME280;41888;44.696;10.522;2023-02-21T09:16:12;101205.19;;;8.97;100.00
56006;BME280;41888;44.696;10.522;2023-02-21T09:18:38;101207.47;;;9.00;100.00
56006;BME280;41888;44.696;10.522;2023-02-21T09:21:06;101206.19;;;8.96;100.00
56006;BME280;41888;44.696;10.522;2023-02-21T09:23:32;101207.66;;;9.21;100.00
56006;BME280;41888;44.696;10.522;2023-02-21T09:25:58;101202.47;;;9.05;100.00
56006;BME280;41888;44.696;10.522;2023-02-21T09:28:24;101202.00;;;9.01;100.00
56006;BME280;41888;44.696;10.522;2023-02-21T09:30:51;101201.75;;;9.11;100.00
56006;BME280;41888;44.696;10.522;2023-02-21T09:33:17;101204.78;;;9.08;100.00
56006;BME280;41888;44.696;10.522;2023-02-21T09:35:43;101205.22;;;9.19;100.00
56006;BME280;41888;44.696;10.522;2023-02-21T09:38:09;101199.78;;;9.13;100.00
56006;BME280;41888;44.696;10.522;2023-02-21T09:40:43;101207.44;;;9.08;100.00
56006;BME280;41888;44.696;10.522;2023-02-21T09:43:45;101210.97;;;9.23;100.00
56006;BME280;41888;44.696;10.522;2023-02-21T09:48:44;101202.34;;;9.21;100.00
56006;BME280;41888;44.696;10.522;2023-02-21T09:51:11;101210.97;;;9.23;100.00
56006;BME280;41888;44.696;10.522;2023-02-21T09:53:47;101197.47;;;9.32;100.00
56006;BME280;41888;44.696;10.522;2023-02-21T09:56:35;101199.56;;;9.37;100.00
56006;BME280;41888;44.696;10.522;2023-02-21T09:59:08;101184.47;;;9.38;100.00
56006;BME280;41888;44.696;10.522;2023-02-21T10:10:11;101192.16;;;9.70;100.00
56006;BME280;41888;44.696;10.522;2023-02-21T10:13:02;101192.72;;;9.80;100.00
56006;BME280;41888;44.696;10.522;2023-02-21T10:18:18;101188.81;;;9.91;100.00
56006;BME280;41888;44.696;10.522;2023-02-21T10:20:55;101194.56;;;9.94;100.00
56006;BME280;41888;44.696;10.522;2023-02-21T10:23:47;101195.59;;;10.08;100.00
56006;BME280;41888;44.696;10.522;2023-02-21T10:26:24;101197.88;;;10.11;100.00
56006;BME280;41888;44.696;10.522;2023-02-21T10:28:52;101185.00;;;10.23;100.00
56006;BME280;41888;44.696;10.522;2023-02-21T10:31:35;101183.81;;;10.25;100.00
56006;BME280;41888;44.696;10.522;2023-02-21T10:34:13;101178.31;;;10.41;100.00
56006;BME280;41888;44.696;10.522;2023-02-21T10:36:40;101178.84;;;10.51;100.00
56006;BME280;41888;44.696;10.522;2023-02-21T10:39:18;101177.69;;;10.75;100.00
56006;BME280;41888;44.696;10.522;2023-02-21T10:41:45;101174.41;;;10.94;100.00
56006;BME280;41888;44.696;10.522;2023-02-21T10:44:29;101172.28;;;11.05;100.00
56006;BME280;41888;44.696;10.522;2023-02-21T10:47:24;101179.56;;;11.17;100.00
56006;BME280;41888;44.696;10.522;2023-02-21T10:50:08;101172.19;;;11.40;100.00
56006;BME280;41888;44.696;10.522;2023-02-21T10:52:47;101167.38;;;11.51;100.00
56006;BME280;41888;44.696;10.522;2023-02-21T10:55:18;101162.56;;;11.39;100.00
56006;BME280;41888;44.696;10.522;2023-02-21T10:57:52;101156.78;;;11.64;100.00
56006;BME280;41888;44.696;10.522;2023-02-21T11:00:24;101145.84;;;11.52;100.00
56006;BME280;41888;44.696;10.522;2023-02-21T11:02:55;101149.22;;;11.89;100.00
56006;BME280;41888;44.696;10.522;2023-02-21T11:05:23;101138.28;;;12.18;100.00
56006;BME280;41888;44.696;10.522;2023-02-21T11:08:09;101143.19;;;15.65;100.00
56006;BME280;41888;44.696;10.522;2023-02-21T11:10:43;101138.44;;;17.29;100.00
56006;BME280;41888;44.696;10.522;2023-02-21T11:13:19;101142.13;;;18.56;95.09
56006;BME280;41888;44.696;10.522;2023-02-21T11:15:46;101136.50;;;19.48;88.12
56006;BME280;41888;44.696;10.522;2023-02-21T11:18:22;101133.03;;;19.03;88.71
56006;BME280;41888;44.696;10.522;2023-02-21T11:20:50;101137.34;;;19.49;85.02
56006;BME280;41888;44.696;10.522;2023-02-21T11:23:29;101128.72;;;18.33;90.03
56006;BME280;41888;44.696;10.522;2023-02-21T11:26:06;101116.47;;;18.82;85.94
56006;BME280;41888;44.696;10.522;2023-02-21T11:28:42;101115.19;;;18.85;88.43
56006;BME280;41888;44.696;10.522;2023-02-21T11:33:59;101105.69;;;18.82;87.57
56006;BME280;41888;44.696;10.522;2023-02-21T11:36:40;101105.59;;;20.16;81.34
56006;BME280;41888;44.696;10.522;2023-02-21T11:42:00;101097.53;;;16.74;94.14
56006;BME280;41888;44.696;10.522;2023-02-21T11:44:32;101089.28;;;16.58;99.16
56006;BME280;41888;44.696;10.522;2023-02-21T11:52:24;101077.53;;;18.33;88.52
56006;BME280;41888;44.696;10.522;2023-02-21T11:54:51;101069.22;;;18.63;86.40
56006;BME280;41888;44.696;10.522;2023-02-21T12:06:03;101059.78;;;17.69;89.63
56006;BME280;41888;44.696;10.522;2023-02-21T12:08:53;101052.66;;;18.43;85.02
56006;BME280;41888;44.696;10.522;2023-02-21T12:11:36;101058.97;;;17.34;88.87
56006;BME280;41888;44.696;10.522;2023-02-21T12:28:31;101025.22;;;16.73;94.10
56006;BME280;41888;44.696;10.522;2023-02-21T12:31:08;101019.59;;;16.63;96.29
56006;BME280;41888;44.696;10.522;2023-02-21T12:48:17;100998.09;;;16.03;98.09
56006;BME280;41888;44.696;10.522;2023-02-21T12:50:49;100994.25;;;16.40;94.72
56006;BME280;41888;44.696;10.522;2023-02-21T12:56:10;100985.91;;;15.71;96.25
56006;BME280;41888;44.696;10.522;2023-02-21T12:59:03;100982.66;;;15.98;95.45
56006;BME280;41888;44.696;10.522;2023-02-21T13:01:43;100983.94;;;16.26;92.95
56006;BME280;41888;44.696;10.522;2023-02-21T13:04:23;100973.53;;;15.51;96.06
56006;BME280;41888;44.696;10.522;2023-02-21T13:09:35;100966.06;;;15.17;96.43
56006;BME280;41888;44.696;10.522;2023-02-21T13:12:19;100950.88;;;15.11;97.79
56006;BME280;41888;44.696;10.522;2023-02-21T13:15:02;100956.16;;;15.72;94.91
56006;BME280;41888;44.696;10.522;2023-02-21T13:17:29;100952.06;;;15.15;96.81
56006;BME280;41888;44.696;10.522;2023-02-21T13:20:30;100951.34;;;15.62;94.63
56006;BME280;41888;44.696;10.522;2023-02-21T13:23:06;100948.19;;;15.29;95.05
56006;BME280;41888;44.696;10.522;2023-02-21T13:28:28;100941.28;;;15.58;96.90
56006;BME280;41888;44.696;10.522;2023-02-21T13:31:02;100945.19;;;15.01;97.63
56006;BME280;41888;44.696;10.522;2023-02-21T13:33:43;100941.78;;;15.12;99.13
56006;BME280;41888;44.696;10.522;2023-02-21T13:39:27;100941.03;;;15.41;93.97
56006;BME280;41888;44.696;10.522;2023-02-21T13:42:08;100931.59;;;14.77;98.88
56006;BME280;41888;44.696;10.522;2023-02-21T13:44:41;100933.03;;;14.80;99.11
56006;BME280;41888;44.696;10.522;2023-02-21T13:47:12;100923.22;;;14.67;100.00
56006;BME280;41888;44.696;10.522;2023-02-21T13:52:34;100921.56;;;14.48;100.00
56006;BME280;41888;44.696;10.522;2023-02-21T14:00:47;100915.25;;;14.29;100.00
56006;BME280;41888;44.696;10.522;2023-02-21T14:08:29;100903.56;;;14.55;100.00
56006;BME280;41888;44.696;10.522;2023-02-21T14:16:34;100906.88;;;13.94;100.00
56006;BME280;41888;44.696;10.522;2023-02-21T14:19:07;100901.38;;;13.83;100.00
56006;BME280;41888;44.696;10.522;2023-02-21T14:21:48;100898.53;;;13.71;100.00
56006;BME280;41888;44.696;10.522;2023-02-21T14:24:22;100896.38;;;13.93;100.00
56006;BME280;41888;44.696;10.522;2023-02-21T14:26:56;100889.94;;;14.01;100.00
56006;BME280;41888;44.696;10.522;2023-02-21T14:32:46;100890.28;;;13.79;100.00
56006;BME280;41888;44.696;10.522;2023-02-21T14:37:49;100881.53;;;13.59;100.00
56006;BME280;41888;44.696;10.522;2023-02-21T14:46:02;100873.31;;;13.61;100.00
56006;BME280;41888;44.696;10.522;2023-02-21T15:12:49;100860.41;;;13.51;100.00
56006;BME280;41888;44.696;10.522;2023-02-21T15:15:28;100862.28;;;13.44;100.00
56006;BME280;41888;44.696;10.522;2023-02-21T15:18:06;100860.66;;;13.43;100.00
56006;BME280;41888;44.696;10.522;2023-02-21T15:20:35;100855.69;;;13.46;100.00
56006;BME280;41888;44.696;10.522;2023-02-21T15:25:36;100856.72;;;13.83;100.00
56006;BME280;41888;44.696;10.522;2023-02-21T15:28:05;100857.09;;;13.87;100.00
56006;BME280;41888;44.696;10.522;2023-02-21T15:30:36;100848.53;;;13.78;100.00
56006;BME280;41888;44.696;10.522;2023-02-21T15:33:13;100854.28;;;13.75;100.00
56006;BME280;41888;44.696;10.522;2023-02-21T15:35:48;100849.84;;;13.63;100.00
56006;BME280;41888;44.696;10.522;2023-02-21T15:38:22;100852.19;;;13.52;100.00
56006;BME280;41888;44.696;10.522;2023-02-21T15:40:53;100842.88;;;13.55;100.00
56006;BME280;41888;44.696;10.522;2023-02-21T15:46:02;100853.59;;;13.55;100.00
56006;BME280;41888;44.696;10.522;2023-02-21T15:48:29;100846.22;;;13.44;100.00
56006;BME280;41888;44.696;10.522;2023-02-21T15:51:02;100847.50;;;13.41;100.00
56006;BME280;41888;44.696;10.522;2023-02-21T15:53:29;100845.50;;;13.30;100.00
56006;BME280;41888;44.696;10.522;2023-02-21T15:56:16;100846.22;;;13.44;100.00
56006;BME280;41888;44.696;10.522;2023-02-21T15:59:12;100852.81;;;13.48;100.00
56006;BME280;41888;44.696;10.522;2023-02-21T16:01:39;100847.88;;;13.45;100.00